Pino Ladra — ECGJ — position and weather

sailwx.info

Track history (hours):
 
Tides and Currents Weather Stations Pressure Air Temp Water Temp Dewpoint Dewpoint Depression Visibility Wind Speed Wind Dir Waves Ship Positions

Pino Ladra

Last reported at 2018-May-11 07:18 UTC. Time now 2018-May-24 17:44 UTC.
Position N 43°49' W 007°39'.
Warning: this ship's position is 13 days out of date.

Length 32 m; draft 7.4 m.

Type: Fishing. MMSI: 224134550.

Date/timePositionNaut miles runAvg speedWind from/ knotsBaromVisibWave heightAir tempDewpointWater temp
2018-May-11 07:18N 43°49' W 007°39'1 3.8
2018-May-11 07:00N 43°49' W 007°37'2 3.8
2018-May-11 06:30N 43°48' W 007°35'2 4.0
2018-May-11 06:01N 43°47' W 007°33'2 4.0
2018-May-11 05:30N 43°47' W 007°30'2 3.4
2018-May-11 04:57N 43°46' W 007°27'5 0.3
2018-May-10 08:51N 43°48' W 007°34'1 4.1
2018-May-10 08:30N 43°49' W 007°36'2 3.8
2018-May-10 08:00N 43°49' W 007°39'1 2.0
2018-May-10 07:30N 43°50' W 007°40'2 3.9
2018-May-10 07:00N 43°49' W 007°38'2 4.0
2018-May-10 06:30N 43°48' W 007°35'2 4.0
2018-May-10 06:00N 43°47' W 007°33'2 4.1
2018-May-10 05:30N 43°47' W 007°30'2 3.8
2018-May-10 05:01N 43°46' W 007°27'2 2.2
2018-May-10 04:14N 43°47' W 007°25'1 3.2
2018-May-10 03:59N 43°47' W 007°26'2 3.1
2018-May-10 03:30N 43°49' W 007°27'2 3.1
2018-May-10 03:00N 43°50' W 007°28'2 3.1
2018-May-10 02:27N 43°51' W 007°29'2 3.2
2018-May-10 01:57N 43°53' W 007°30'3 3.1
2018-May-10 01:01N 43°56' W 007°30'0 7.6
2018-May-10 00:57N 43°55' W 007°30'3 2.2
2018-May-09 23:36N 43°52' W 007°30'0 3.3
2018-May-09 23:28N 43°52' W 007°30'2 3.2
2018-May-09 22:56N 43°51' W 007°29'1 3.3
2018-May-09 22:30N 43°50' W 007°27'2 3.3
2018-May-09 22:00N 43°49' W 007°25'2 3.2
2018-May-09 21:28N 43°48' W 007°23'3 0.6
2018-May-09 16:53N 43°47' W 007°27'1 3.3
2018-May-09 16:27N 43°48' W 007°29'1 3.3
2018-May-09 16:00N 43°48' W 007°31'2 3.3
2018-May-09 15:31N 43°48' W 007°33'2 3.3
2018-May-09 15:01N 43°49' W 007°35'2 3.5
2018-May-09 14:30N 43°49' W 007°38'1 2.0
2018-May-09 14:01N 43°49' W 007°39'2 3.3
2018-May-09 13:29N 43°50' W 007°41'1 0.3
2018-May-09 08:42N 43°50' W 007°43'1 3.3
2018-May-09 08:30N 43°50' W 007°42'2 3.3
2018-May-09 07:58N 43°49' W 007°40'2 3.3
2018-May-09 07:30N 43°49' W 007°37'2 3.3
2018-May-09 07:00N 43°48' W 007°36'1 1.8
2018-May-09 06:30N 43°48' W 007°35'2 3.5
2018-May-09 06:01N 43°47' W 007°33'2 4.1
2018-May-09 05:30N 43°47' W 007°30'1 0.7
2018-May-09 03:31N 43°47' W 007°28'0 3.4
2018-May-09 03:29N 43°47' W 007°28'2 3.3
2018-May-09 02:46N 43°48' W 007°31'1 3.2
2018-May-09 02:30N 43°48' W 007°32'2 3.2
2018-May-09 02:00N 43°48' W 007°34'2 3.3
2018-May-09 01:30N 43°49' W 007°37'1 1.5
2018-May-09 01:00N 43°48' W 007°36'2 3.0
2018-May-09 00:30N 43°48' W 007°34'2 3.1
2018-May-09 00:00N 43°49' W 007°32'2 3.1
2018-May-08 23:29N 43°49' W 007°29'2 3.2
2018-May-08 22:57N 43°49' W 007°27'3 0.6
2018-May-08 18:10N 43°47' W 007°25'1 3.1
2018-May-08 17:55N 43°48' W 007°25'1 2.3
2018-May-08 17:25N 43°48' W 007°26'1 3.4
2018-May-08 17:00N 43°50' W 007°28'2 3.3
2018-May-08 16:30N 43°51' W 007°29'2 3.4
2018-May-08 15:57N 43°52' W 007°30'2 1.6
2018-May-08 14:41N 43°54' W 007°30'5 3.1
2018-May-08 13:01N 43°50' W 007°28'0 3.2
2018-May-08 12:59N 43°50' W 007°28'2 0.7
2018-May-08 10:00N 43°48' W 007°29'2 3.2
2018-May-08 09:30N 43°48' W 007°31'2 3.2
2018-May-08 09:01N 43°48' W 007°33'2 3.2
2018-May-08 08:31N 43°49' W 007°35'2 3.2
2018-May-08 08:01N 43°49' W 007°37'1 2.0
2018-May-08 07:30N 43°50' W 007°38'1 2.4
2018-May-08 07:00N 43°49' W 007°37'2 4.0
2018-May-08 06:30N 43°48' W 007°35'2 4.1
2018-May-08 06:00N 43°47' W 007°32'2 4.1
2018-May-08 05:30N 43°47' W 007°29'3 1.3
2018-May-08 03:37N 43°47' W 007°26'0 3.1
2018-May-08 03:28N 43°47' W 007°26'2 3.1
2018-May-08 02:59N 43°48' W 007°28'2 3.1
2018-May-08 02:26N 43°50' W 007°29'1 3.1
2018-May-08 02:00N 43°51' W 007°29'4 2.7
2018-May-08 00:29N 43°55' W 007°29'3 2.4
2018-May-07 23:16N 43°53' W 007°31'1 3.2
2018-May-07 22:58N 43°52' W 007°30'2 3.2
2018-May-07 22:29N 43°51' W 007°28'2 3.3
2018-May-07 21:48N 43°50' W 007°26'1 3.3
2018-May-07 21:23N 43°49' W 007°24'6 0.9
2018-May-07 14:49N 43°53' W 007°31'1 3.2
2018-May-07 14:27N 43°52' W 007°30'2 3.2
2018-May-07 13:56N 43°50' W 007°29'1 3.2
2018-May-07 13:30N 43°49' W 007°28'3 1.6
2018-May-07 11:42N 43°46' W 007°27'1 4.0
2018-May-07 11:20N 43°46' W 007°29'1 4.0
2018-May-07 11:00N 43°47' W 007°31'2 4.1
2018-May-07 10:30N 43°47' W 007°34'2 4.1
2018-May-07 10:01N 43°48' W 007°35'2 4.1
2018-May-07 09:31N 43°49' W 007°38'4 3.0
2018-May-07 08:19N 43°50' W 007°43'1 4.0
2018-May-07 07:59N 43°50' W 007°41'2 4.0
2018-May-07 07:30N 43°49' W 007°39'2 4.1
2018-May-07 07:00N 43°48' W 007°36'2 4.0
2018-May-07 06:31N 43°47' W 007°34'2 4.1
2018-May-07 05:58N 43°47' W 007°31'2 4.1
2018-May-07 05:28N 43°46' W 007°28'1 0.7
2018-May-07 04:30N 43°47' W 007°28'2 3.2
2018-May-07 03:57N 43°47' W 007°30'1 3.2
2018-May-07 03:31N 43°48' W 007°32'2 3.2
2018-May-07 02:59N 43°48' W 007°35'1 1.9
2018-May-07 02:31N 43°48' W 007°36'1 1.4
2018-May-07 02:00N 43°48' W 007°35'2 3.1
2018-May-07 01:28N 43°48' W 007°33'2 3.1
2018-May-07 00:59N 43°49' W 007°31'2 3.2
2018-May-07 00:30N 43°49' W 007°28'2 3.1
2018-May-07 00:00N 43°48' W 007°26'2 3.2
2018-May-06 23:30N 43°47' W 007°25'3 4.5
2018-May-06 22:47N 43°45' W 007°29'3 9.4
2018-May-06 22:30N 43°45' W 007°32'5 9.2
2018-May-06 22:01N 43°41' W 007°36'  
2018-May-04 17:26N 43°41' W 007°36'0 0.3
2018-May-04 17:00N 43°41' W 007°36'4 8.9
2018-May-04 16:31N 43°45' W 007°33'5 1.0
2018-May-04 11:20N 43°46' W 007°26'2 3.3
2018-May-04 10:37N 43°47' W 007°29'0 3.4
2018-May-04 10:30N 43°47' W 007°30'2 3.4
2018-May-04 10:00N 43°47' W 007°32'2 3.5
2018-May-04 09:30N 43°48' W 007°34'0 0.5
2018-May-04 09:00N 43°48' W 007°34'2 3.3
2018-May-04 08:30N 43°49' W 007°36'2 3.3
2018-May-04 08:00N 43°49' W 007°38'2 3.2
2018-May-04 07:29N 43°50' W 007°41'1 0.1
2018-May-03 11:46N 43°50' W 007°42'1 4.2
2018-May-03 11:29N 43°50' W 007°41'2 4.0
2018-May-03 11:00N 43°49' W 007°38'2 4.3
2018-May-03 10:31N 43°48' W 007°36'2 4.0
2018-May-03 10:01N 43°47' W 007°33'2 4.1
2018-May-03 09:30N 43°47' W 007°31'2 4.0
2018-May-03 08:59N 43°46' W 007°28'4 9.0
2018-May-03 08:31N 43°44' W 007°33'4 8.2
2018-May-03 08:00N 43°41' W 007°36'0 0.0
2018-May-03 07:30N 43°41' W 007°36'0 0.0
2018-May-03 07:00N 43°41' W 007°36'0 0.0
2018-May-03 06:30N 43°41' W 007°36'0 0.0
2018-May-03 06:00N 43°41' W 007°36'0 0.0
2018-May-03 05:30N 43°41' W 007°36'0 0.0
2018-May-03 05:00N 43°41' W 007°36'0 0.0
2018-May-03 04:30N 43°41' W 007°36'0 0.0
2018-May-03 04:00N 43°41' W 007°36'0 0.0
2018-May-03 03:30N 43°41' W 007°36'0 0.0
2018-May-03 03:01N 43°41' W 007°36'0 0.0
2018-May-03 02:30N 43°41' W 007°36'0 0.0
2018-May-03 02:01N 43°41' W 007°36'0 0.5
2018-May-03 01:31N 43°41' W 007°36'3 5.1
2018-May-03 01:00N 43°43' W 007°35'3 5.0
2018-May-03 00:29N 43°45' W 007°33'0 0.8
2018-May-03 00:01N 43°46' W 007°34'0 0.7
2018-May-02 23:28N 43°46' W 007°34'1 3.0
2018-May-02 23:00N 43°48' W 007°33'0 0.5
2018-May-02 22:28N 43°48' W 007°33'0 0.4
2018-May-02 22:00N 43°48' W 007°33'2 3.2
2018-May-02 21:30N 43°47' W 007°31'2 3.2
2018-May-02 21:00N 43°47' W 007°29'2 0.6
2018-May-02 17:38N 43°46' W 007°27'2 2.3
2018-May-02 16:52N 43°47' W 007°29'1 3.3
2018-May-02 16:29N 43°47' W 007°31'2 3.4
2018-May-02 15:59N 43°47' W 007°33'2 3.3
2018-May-02 15:30N 43°48' W 007°35'2 3.4
2018-May-02 14:59N 43°49' W 007°37'2 3.4
2018-May-02 14:30N 43°49' W 007°39'1 2.3
2018-May-02 14:00N 43°50' W 007°40'2 0.5
2018-May-02 09:21N 43°50' W 007°43'1 3.3
2018-May-02 09:00N 43°50' W 007°41'2 3.2
2018-May-02 08:30N 43°49' W 007°39'1 2.3
2018-May-02 08:00N 43°50' W 007°40'1 1.7
2018-May-02 07:30N 43°50' W 007°39'2 4.0
2018-May-02 07:00N 43°48' W 007°37'2 4.0
2018-May-02 06:30N 43°47' W 007°34'2 4.1
2018-May-02 06:00N 43°47' W 007°32'2 4.1
2018-May-02 05:30N 43°46' W 007°29'2 3.0
2018-May-02 04:58N 43°46' W 007°27'1 1.1
2018-May-02 04:10N 43°47' W 007°26'1 3.2
2018-May-02 03:56N 43°47' W 007°27'2 3.3
2018-May-02 03:25N 43°48' W 007°29'1 3.4
2018-May-02 03:00N 43°48' W 007°31'2 3.3
2018-May-02 02:29N 43°48' W 007°33'2 3.2
2018-May-02 02:00N 43°49' W 007°35'2 3.2
2018-May-02 01:30N 43°49' W 007°37'2 3.2
2018-May-02 01:00N 43°49' W 007°39'2 3.5
2018-May-02 00:29N 43°49' W 007°42'2 3.9
2018-May-02 00:00N 43°51' W 007°40'2 3.1
2018-May-01 23:29N 43°50' W 007°39'2 3.2
2018-May-01 23:00N 43°49' W 007°37'2 3.2
2018-May-01 22:30N 43°48' W 007°35'2 3.3
2018-May-01 22:00N 43°48' W 007°33'2 3.3
2018-May-01 21:30N 43°47' W 007°30'2 3.2
2018-May-01 20:59N 43°47' W 007°28'2 3.2
2018-May-01 20:29N 43°46' W 007°26'3 0.8
2018-May-01 16:47N 43°45' W 007°29'11 1.3
2018-May-01 08:05N 43°50' W 007°43'0 4.1
2018-May-01 07:58N 43°50' W 007°42'2 4.0
2018-May-01 07:30N 43°49' W 007°40'  
Track history (hours):
 
Tides and Currents Weather Stations Pressure Air Temp Water Temp Dewpoint Dewpoint Depression Visibility Wind Speed Wind Dir Waves Ship Positions

Pino Ladra

Last reported at 2018-May-11 07:18 UTC. Time now 2018-May-24 17:44 UTC.
Position N 43°49' W 007°39'.
Warning: this ship's position is 13 days out of date.

Length 32 m; draft 7.4 m.

Type: Fishing. MMSI: 224134550.

Date/timePositionNaut miles runAvg speedWind from/ knotsBaromVisibWave heightAir tempDewpointWater temp
2018-May-11 07:18N 43°49' W 007°39'1 3.8
2018-May-11 07:00N 43°49' W 007°37'2 3.8
2018-May-11 06:30N 43°48' W 007°35'2 4.0
2018-May-11 06:01N 43°47' W 007°33'2 4.0
2018-May-11 05:30N 43°47' W 007°30'2 3.4
2018-May-11 04:57N 43°46' W 007°27'5 0.3
2018-May-10 08:51N 43°48' W 007°34'1 4.1
2018-May-10 08:30N 43°49' W 007°36'2 3.8
2018-May-10 08:00N 43°49' W 007°39'1 2.0
2018-May-10 07:30N 43°50' W 007°40'2 3.9
2018-May-10 07:00N 43°49' W 007°38'2 4.0
2018-May-10 06:30N 43°48' W 007°35'2 4.0
2018-May-10 06:00N 43°47' W 007°33'2 4.1
2018-May-10 05:30N 43°47' W 007°30'2 3.8
2018-May-10 05:01N 43°46' W 007°27'2 2.2
2018-May-10 04:14N 43°47' W 007°25'1 3.2
2018-May-10 03:59N 43°47' W 007°26'2 3.1
2018-May-10 03:30N 43°49' W 007°27'2 3.1
2018-May-10 03:00N 43°50' W 007°28'2 3.1
2018-May-10 02:27N 43°51' W 007°29'2 3.2
2018-May-10 01:57N 43°53' W 007°30'3 3.1
2018-May-10 01:01N 43°56' W 007°30'0 7.6
2018-May-10 00:57N 43°55' W 007°30'3 2.2
2018-May-09 23:36N 43°52' W 007°30'0 3.3
2018-May-09 23:28N 43°52' W 007°30'2 3.2
2018-May-09 22:56N 43°51' W 007°29'1 3.3
2018-May-09 22:30N 43°50' W 007°27'2 3.3
2018-May-09 22:00N 43°49' W 007°25'2 3.2
2018-May-09 21:28N 43°48' W 007°23'3 0.6
2018-May-09 16:53N 43°47' W 007°27'1 3.3
2018-May-09 16:27N 43°48' W 007°29'1 3.3
2018-May-09 16:00N 43°48' W 007°31'2 3.3
2018-May-09 15:31N 43°48' W 007°33'2 3.3
2018-May-09 15:01N 43°49' W 007°35'2 3.5
2018-May-09 14:30N 43°49' W 007°38'1 2.0
2018-May-09 14:01N 43°49' W 007°39'2 3.3
2018-May-09 13:29N 43°50' W 007°41'1 0.3
2018-May-09 08:42N 43°50' W 007°43'1 3.3
2018-May-09 08:30N 43°50' W 007°42'2 3.3
2018-May-09 07:58N 43°49' W 007°40'2 3.3
2018-May-09 07:30N 43°49' W 007°37'2 3.3
2018-May-09 07:00N 43°48' W 007°36'1 1.8
2018-May-09 06:30N 43°48' W 007°35'2 3.5
2018-May-09 06:01N 43°47' W 007°33'2 4.1
2018-May-09 05:30N 43°47' W 007°30'1 0.7
2018-May-09 03:31N 43°47' W 007°28'0 3.4
2018-May-09 03:29N 43°47' W 007°28'2 3.3
2018-May-09 02:46N 43°48' W 007°31'1 3.2
2018-May-09 02:30N 43°48' W 007°32'2 3.2
2018-May-09 02:00N 43°48' W 007°34'2 3.3
2018-May-09 01:30N 43°49' W 007°37'1 1.5
2018-May-09 01:00N 43°48' W 007°36'2 3.0
2018-May-09 00:30N 43°48' W 007°34'2 3.1
2018-May-09 00:00N 43°49' W 007°32'2 3.1
2018-May-08 23:29N 43°49' W 007°29'2 3.2
2018-May-08 22:57N 43°49' W 007°27'3 0.6
2018-May-08 18:10N 43°47' W 007°25'1 3.1
2018-May-08 17:55N 43°48' W 007°25'1 2.3
2018-May-08 17:25N 43°48' W 007°26'1 3.4
2018-May-08 17:00N 43°50' W 007°28'2 3.3
2018-May-08 16:30N 43°51' W 007°29'2 3.4
2018-May-08 15:57N 43°52' W 007°30'2 1.6
2018-May-08 14:41N 43°54' W 007°30'5 3.1
2018-May-08 13:01N 43°50' W 007°28'0 3.2
2018-May-08 12:59N 43°50' W 007°28'2 0.7
2018-May-08 10:00N 43°48' W 007°29'2 3.2
2018-May-08 09:30N 43°48' W 007°31'2 3.2
2018-May-08 09:01N 43°48' W 007°33'2 3.2
2018-May-08 08:31N 43°49' W 007°35'2 3.2
2018-May-08 08:01N 43°49' W 007°37'1 2.0
2018-May-08 07:30N 43°50' W 007°38'1 2.4
2018-May-08 07:00N 43°49' W 007°37'2 4.0
2018-May-08 06:30N 43°48' W 007°35'2 4.1
2018-May-08 06:00N 43°47' W 007°32'2 4.1
2018-May-08 05:30N 43°47' W 007°29'3 1.3
2018-May-08 03:37N 43°47' W 007°26'0 3.1
2018-May-08 03:28N 43°47' W 007°26'2 3.1
2018-May-08 02:59N 43°48' W 007°28'2 3.1
2018-May-08 02:26N 43°50' W 007°29'1 3.1
2018-May-08 02:00N 43°51' W 007°29'4 2.7
2018-May-08 00:29N 43°55' W 007°29'3 2.4
2018-May-07 23:16N 43°53' W 007°31'1 3.2
2018-May-07 22:58N 43°52' W 007°30'2 3.2
2018-May-07 22:29N 43°51' W 007°28'2 3.3
2018-May-07 21:48N 43°50' W 007°26'1 3.3
2018-May-07 21:23N 43°49' W 007°24'6 0.9
2018-May-07 14:49N 43°53' W 007°31'1 3.2
2018-May-07 14:27N 43°52' W 007°30'2 3.2
2018-May-07 13:56N 43°50' W 007°29'1 3.2
2018-May-07 13:30N 43°49' W 007°28'3 1.6
2018-May-07 11:42N 43°46' W 007°27'1 4.0
2018-May-07 11:20N 43°46' W 007°29'1 4.0
2018-May-07 11:00N 43°47' W 007°31'2 4.1
2018-May-07 10:30N 43°47' W 007°34'2 4.1
2018-May-07 10:01N 43°48' W 007°35'2 4.1
2018-May-07 09:31N 43°49' W 007°38'4 3.0
2018-May-07 08:19N 43°50' W 007°43'1 4.0
2018-May-07 07:59N 43°50' W 007°41'2 4.0
2018-May-07 07:30N 43°49' W 007°39'2 4.1
2018-May-07 07:00N 43°48' W 007°36'2 4.0
2018-May-07 06:31N 43°47' W 007°34'2 4.1
2018-May-07 05:58N 43°47' W 007°31'2 4.1
2018-May-07 05:28N 43°46' W 007°28'1 0.7
2018-May-07 04:30N 43°47' W 007°28'2 3.2
2018-May-07 03:57N 43°47' W 007°30'1 3.2
2018-May-07 03:31N 43°48' W 007°32'2 3.2
2018-May-07 02:59N 43°48' W 007°35'1 1.9
2018-May-07 02:31N 43°48' W 007°36'1 1.4
2018-May-07 02:00N 43°48' W 007°35'2 3.1
2018-May-07 01:28N 43°48' W 007°33'2 3.1
2018-May-07 00:59N 43°49' W 007°31'2 3.2
2018-May-07 00:30N 43°49' W 007°28'2 3.1
2018-May-07 00:00N 43°48' W 007°26'2 3.2
2018-May-06 23:30N 43°47' W 007°25'3 4.5
2018-May-06 22:47N 43°45' W 007°29'3 9.4
2018-May-06 22:30N 43°45' W 007°32'5 9.2
2018-May-06 22:01N 43°41' W 007°36'  
2018-May-04 17:26N 43°41' W 007°36'0 0.3
2018-May-04 17:00N 43°41' W 007°36'4 8.9
2018-May-04 16:31N 43°45' W 007°33'5 1.0
2018-May-04 11:20N 43°46' W 007°26'2 3.3
2018-May-04 10:37N 43°47' W 007°29'0 3.4
2018-May-04 10:30N 43°47' W 007°30'2 3.4
2018-May-04 10:00N 43°47' W 007°32'2 3.5
2018-May-04 09:30N 43°48' W 007°34'0 0.5
2018-May-04 09:00N 43°48' W 007°34'2 3.3
2018-May-04 08:30N 43°49' W 007°36'2 3.3
2018-May-04 08:00N 43°49' W 007°38'2 3.2
2018-May-04 07:29N 43°50' W 007°41'1 0.1
2018-May-03 11:46N 43°50' W 007°42'1 4.2
2018-May-03 11:29N 43°50' W 007°41'2 4.0
2018-May-03 11:00N 43°49' W 007°38'2 4.3
2018-May-03 10:31N 43°48' W 007°36'2 4.0
2018-May-03 10:01N 43°47' W 007°33'2 4.1
2018-May-03 09:30N 43°47' W 007°31'2 4.0
2018-May-03 08:59N 43°46' W 007°28'4 9.0
2018-May-03 08:31N 43°44' W 007°33'4 8.2
2018-May-03 08:00N 43°41' W 007°36'0 0.0
2018-May-03 07:30N 43°41' W 007°36'0 0.0
2018-May-03 07:00N 43°41' W 007°36'0 0.0
2018-May-03 06:30N 43°41' W 007°36'0 0.0
2018-May-03 06:00N 43°41' W 007°36'0 0.0
2018-May-03 05:30N 43°41' W 007°36'0 0.0
2018-May-03 05:00N 43°41' W 007°36'0 0.0
2018-May-03 04:30N 43°41' W 007°36'0 0.0
2018-May-03 04:00N 43°41' W 007°36'0 0.0
2018-May-03 03:30N 43°41' W 007°36'0 0.0
2018-May-03 03:01N 43°41' W 007°36'0 0.0
2018-May-03 02:30N 43°41' W 007°36'0 0.0
2018-May-03 02:01N 43°41' W 007°36'0 0.5
2018-May-03 01:31N 43°41' W 007°36'3 5.1
2018-May-03 01:00N 43°43' W 007°35'3 5.0
2018-May-03 00:29N 43°45' W 007°33'0 0.8
2018-May-03 00:01N 43°46' W 007°34'0 0.7
2018-May-02 23:28N 43°46' W 007°34'1 3.0
2018-May-02 23:00N 43°48' W 007°33'0 0.5
2018-May-02 22:28N 43°48' W 007°33'0 0.4
2018-May-02 22:00N 43°48' W 007°33'2 3.2
2018-May-02 21:30N 43°47' W 007°31'2 3.2
2018-May-02 21:00N 43°47' W 007°29'2 0.6
2018-May-02 17:38N 43°46' W 007°27'2 2.3
2018-May-02 16:52N 43°47' W 007°29'1 3.3
2018-May-02 16:29N 43°47' W 007°31'2 3.4
2018-May-02 15:59N 43°47' W 007°33'2 3.3
2018-May-02 15:30N 43°48' W 007°35'2 3.4
2018-May-02 14:59N 43°49' W 007°37'2 3.4
2018-May-02 14:30N 43°49' W 007°39'1 2.3
2018-May-02 14:00N 43°50' W 007°40'2 0.5
2018-May-02 09:21N 43°50' W 007°43'1 3.3
2018-May-02 09:00N 43°50' W 007°41'2 3.2
2018-May-02 08:30N 43°49' W 007°39'1 2.3
2018-May-02 08:00N 43°50' W 007°40'1 1.7
2018-May-02 07:30N 43°50' W 007°39'2 4.0
2018-May-02 07:00N 43°48' W 007°37'2 4.0
2018-May-02 06:30N 43°47' W 007°34'2 4.1
2018-May-02 06:00N 43°47' W 007°32'2 4.1
2018-May-02 05:30N 43°46' W 007°29'2 3.0
2018-May-02 04:58N 43°46' W 007°27'1 1.1
2018-May-02 04:10N 43°47' W 007°26'1 3.2
2018-May-02 03:56N 43°47' W 007°27'2 3.3
2018-May-02 03:25N 43°48' W 007°29'1 3.4
2018-May-02 03:00N 43°48' W 007°31'2 3.3
2018-May-02 02:29N 43°48' W 007°33'2 3.2
2018-May-02 02:00N 43°49' W 007°35'2 3.2
2018-May-02 01:30N 43°49' W 007°37'2 3.2
2018-May-02 01:00N 43°49' W 007°39'2 3.5
2018-May-02 00:29N 43°49' W 007°42'2 3.9
2018-May-02 00:00N 43°51' W 007°40'2 3.1
2018-May-01 23:29N 43°50' W 007°39'2 3.2
2018-May-01 23:00N 43°49' W 007°37'2 3.2
2018-May-01 22:30N 43°48' W 007°35'2 3.3
2018-May-01 22:00N 43°48' W 007°33'2 3.3
2018-May-01 21:30N 43°47' W 007°30'2 3.2
2018-May-01 20:59N 43°47' W 007°28'2 3.2
2018-May-01 20:29N 43°46' W 007°26'3 0.8
2018-May-01 16:47N 43°45' W 007°29'11 1.3
2018-May-01 08:05N 43°50' W 007°43'0 4.1
2018-May-01 07:58N 43°50' W 007°42'2 4.0
2018-May-01 07:30N 43°49' W 007°40'  

Dump ship's entire track history